createdAt,value
2022-08-19T16:13:22.365Z,27.29
2022-08-19T16:14:14.511Z,27.27
2022-08-19T16:15:26.969Z,27.26
2022-08-19T16:16:33.631Z,27.22
2022-08-19T16:17:57.090Z,27.2
2022-08-19T16:18:49.801Z,27.22
2022-08-19T16:20:02.431Z,27.23
2022-08-19T16:21:14.187Z,27.23
2022-08-19T16:22:26.968Z,27.2
2022-08-19T16:23:28.906Z,27.19
2022-08-19T16:24:41.441Z,27.18
2022-08-19T16:25:53.229Z,27.2
2022-08-19T16:27:05.442Z,27.2
2022-08-19T16:28:08.611Z,27.16
2022-08-19T16:29:33.601Z,27.12
2022-08-19T16:30:27.834Z,27.16
2022-08-19T16:31:40.493Z,27.15
2022-08-19T16:32:52.329Z,27.15
2022-08-19T16:33:54.950Z,27.12
2022-08-19T16:35:06.923Z,27.15
2022-08-19T16:36:19.452Z,27.12
2022-08-19T16:37:32.977Z,27.11
2022-08-19T16:38:36.562Z,27.12
2022-08-19T16:39:48.708Z,27.09
2022-08-19T16:41:02.009Z,27.12
2022-08-19T16:42:04.037Z,27.08
2022-08-19T16:43:19.988Z,27.06
2022-08-19T16:44:21.989Z,27.05
2022-08-19T16:45:34.472Z,27.08
2022-08-19T16:46:46.281Z,27.06
2022-08-19T16:47:59.878Z,27.05
2022-08-19T16:49:02.495Z,27.05
2022-08-19T16:50:22.359Z,27.05
2022-08-19T16:51:25.874Z,27.05
2022-08-19T16:52:38.508Z,27.06
2022-08-19T16:53:40.494Z,27.02
2022-08-19T16:54:52.964Z,27.02
2022-08-19T16:56:04.768Z,27.0
2022-08-19T16:57:18.341Z,27.0
2022-08-19T16:58:22.452Z,26.95
2022-08-19T16:59:33.795Z,26.96
2022-08-19T17:00:47.311Z,26.97
2022-08-19T17:01:50.039Z,26.95
2022-08-19T17:03:01.978Z,26.88
2022-08-19T17:04:14.498Z,26.88
2022-08-19T17:05:16.476Z,26.82
2022-08-19T17:06:28.978Z,26.72
2022-08-19T17:07:40.744Z,26.44
2022-08-19T17:08:53.460Z,26.51
2022-08-19T17:09:55.499Z,26.49
2022-08-19T17:11:18.237Z,26.49
2022-08-19T17:12:20.863Z,26.52
2022-08-19T17:13:33.500Z,26.55
2022-08-19T17:14:35.546Z,26.54
2022-08-19T17:15:48.007Z,26.52
2022-08-19T17:16:59.853Z,26.46
2022-08-19T17:18:12.519Z,26.49
2022-08-19T17:19:14.545Z,26.48
2022-08-19T17:20:26.996Z,26.46
2022-08-19T17:21:38.862Z,26.46
2022-08-19T17:22:51.993Z,26.44
2022-08-19T17:23:54.092Z,26.46
2022-08-19T17:25:06.479Z,26.4
2022-08-19T17:26:18.737Z,26.42
2022-08-19T17:27:21.471Z,26.42
2022-08-19T17:28:33.321Z,26.42
2022-08-19T17:29:47.149Z,26.42
2022-08-19T17:30:49.329Z,26.45
2022-08-19T17:32:01.992Z,26.46
2022-08-19T17:33:13.854Z,26.45
2022-08-19T17:34:26.486Z,26.48
2022-08-19T17:35:28.571Z,26.49
2022-08-19T17:36:41.502Z,26.51
2022-08-19T17:37:53.570Z,26.49
2022-08-19T17:39:05.995Z,26.52
2022-08-19T17:40:08.065Z,26.48
2022-08-19T17:41:20.509Z,26.48
2022-08-19T17:42:32.355Z,26.48
2022-08-19T17:43:45.009Z,26.46
2022-08-19T17:44:50.435Z,26.48
2022-08-19T17:46:03.489Z,26.51
2022-08-19T17:47:05.489Z,26.48
2022-08-19T17:48:18.013Z,26.45
2022-08-19T17:49:29.873Z,26.45
2022-08-19T17:50:35.476Z,26.45
2022-08-19T17:51:47.320Z,26.45
2022-08-19T17:53:00.015Z,26.44
2022-08-19T17:54:11.872Z,26.45
2022-08-19T17:55:14.512Z,26.46
2022-08-19T17:56:26.365Z,26.45
2022-08-19T17:57:39.009Z,26.45
2022-08-19T17:59:00.094Z,26.44
2022-08-19T17:59:54.479Z,26.44
2022-08-19T18:01:08.543Z,26.42
2022-08-19T18:02:13.072Z,26.44
2022-08-19T18:03:25.039Z,26.41
2022-08-19T18:04:37.512Z,26.41
2022-08-19T18:05:49.315Z,26.4
2022-08-19T18:06:54.132Z,26.38
2022-08-19T18:08:06.534Z,26.35
2022-08-19T18:09:18.995Z,26.38
2022-08-19T18:10:23.769Z,26.35
2022-08-19T18:11:37.497Z,26.37
2022-08-19T18:12:39.436Z,26.34
2022-08-19T18:13:51.994Z,26.35
2022-08-19T18:15:03.853Z,26.33
2022-08-19T18:16:16.496Z,26.34
2022-08-19T18:17:18.538Z,26.31
2022-08-19T18:18:31.006Z,26.28
2022-08-19T18:19:43.745Z,26.3
2022-08-19T18:20:57.028Z,26.3
2022-08-19T18:21:59.118Z,26.3
2022-08-19T18:23:45.279Z,26.25
2022-08-19T18:24:18.534Z,26.24
2022-08-19T18:25:30.570Z,26.28
2022-08-19T18:26:43.066Z,26.27
2022-08-19T18:27:55.010Z,26.28
2022-08-19T18:28:58.018Z,26.3
2022-08-19T18:30:09.875Z,26.27
2022-08-19T18:31:22.521Z,26.28
2022-08-19T18:32:24.580Z,26.27
2022-08-19T18:33:44.318Z,26.28
2022-08-19T18:34:46.759Z,26.24
2022-08-19T18:35:59.514Z,26.25
2022-08-19T18:37:11.392Z,26.23
2022-08-19T18:38:14.038Z,26.23
2022-08-19T18:39:25.895Z,26.21
2022-08-19T18:40:42.012Z,26.21
2022-08-19T18:41:43.991Z,26.23
2022-08-19T18:42:56.500Z,26.18
2022-08-19T18:44:08.370Z,26.21
2022-08-19T18:45:21.003Z,26.21
2022-08-19T18:46:22.963Z,26.23
2022-08-19T18:47:36.012Z,26.21
2022-08-19T18:48:47.890Z,26.21
2022-08-19T18:50:00.519Z,26.24
2022-08-19T18:51:02.535Z,26.21
2022-08-19T18:52:15.536Z,26.2
2022-08-19T18:53:27.579Z,26.18
2022-08-19T18:54:30.554Z,26.1
2022-08-19T18:55:42.484Z,26.04
2022-08-19T18:56:55.023Z,25.91
2022-08-19T18:58:07.922Z,25.8
2022-08-19T18:59:11.092Z,25.69
2022-08-19T19:00:23.054Z,25.53
2022-08-19T19:01:36.041Z,25.42
2022-08-19T19:02:38.177Z,25.29
2022-08-19T19:03:51.016Z,25.22
2022-08-19T19:05:07.057Z,25.12
2022-08-19T19:06:10.547Z,25.01
2022-08-19T19:07:22.748Z,24.95
2022-08-19T19:08:35.519Z,24.84
2022-08-19T19:09:37.917Z,24.8
2022-08-19T19:10:50.561Z,24.81
2022-08-19T19:12:03.141Z,24.85
2022-08-19T19:13:16.028Z,24.97
2022-08-19T19:14:38.751Z,25.0
2022-08-19T19:15:31.035Z,25.04
2022-08-19T19:16:35.430Z,25.02
2022-08-19T19:17:48.151Z,24.98
2022-08-19T19:19:00.260Z,24.97
2022-08-19T19:20:13.050Z,24.9
2022-08-19T19:21:15.280Z,24.84
2022-08-19T19:22:28.029Z,24.78
2022-08-19T19:23:40.121Z,24.74
2022-08-19T19:24:53.028Z,24.7
2022-08-19T19:25:55.273Z,24.64
2022-08-19T19:27:08.057Z,24.58
2022-08-19T19:28:20.205Z,24.56
2022-08-19T19:29:33.042Z,24.5
2022-08-19T19:30:35.253Z,24.46
2022-08-19T19:31:48.046Z,24.41
2022-08-19T19:33:00.242Z,24.4
2022-08-19T19:34:15.483Z,24.36
2022-08-19T19:35:12.530Z,24.34
2022-08-19T19:36:24.699Z,24.3
2022-08-19T19:37:37.551Z,24.29
2022-08-19T19:38:49.723Z,24.29
2022-08-19T19:39:53.066Z,24.26
2022-08-19T19:41:05.250Z,24.23
2022-08-19T19:42:20.595Z,24.2
2022-08-19T19:43:23.224Z,24.2
2022-08-19T19:44:36.022Z,24.16
2022-08-19T19:45:48.200Z,24.16
2022-08-19T19:47:01.057Z,24.14
2022-08-19T19:48:03.293Z,24.14
2022-08-19T19:49:16.023Z,24.13
2022-08-19T19:50:28.203Z,24.11
2022-08-19T19:51:31.067Z,24.11
2022-08-19T19:52:40.071Z,24.1
2022-08-19T19:53:53.037Z,24.06
2022-08-19T19:55:05.234Z,24.07
2022-08-19T19:56:18.065Z,24.09
2022-08-19T19:57:20.394Z,24.06
2022-08-19T19:58:33.532Z,24.06
2022-08-19T19:59:51.665Z,24.05
2022-08-19T20:00:55.067Z,24.06
2022-08-19T20:02:07.406Z,24.05
2022-08-19T20:03:10.566Z,24.05
2022-08-19T20:04:22.759Z,24.02
2022-08-19T20:05:35.543Z,24.05
2022-08-19T20:06:37.792Z,24.0
2022-08-19T20:07:50.566Z,24.03
2022-08-19T20:09:02.767Z,24.0
2022-08-19T20:10:15.554Z,24.02
2022-08-19T20:11:17.811Z,24.02
2022-08-19T20:12:30.553Z,24.0
2022-08-19T20:13:42.549Z,24.0
2022-08-19T20:14:55.545Z,23.99
2022-08-19T20:15:57.798Z,23.99
2022-08-19T20:17:10.536Z,23.99
2022-08-19T20:18:22.673Z,23.98
2022-08-19T20:19:35.531Z,23.99
2022-08-19T20:20:37.792Z,23.99
2022-08-19T20:21:51.478Z,23.99
2022-08-19T20:23:03.850Z,23.98
2022-08-19T20:24:09.824Z,23.96
2022-08-19T20:25:22.511Z,24.0
2022-08-19T20:26:35.565Z,23.98
2022-08-19T20:27:39.866Z,23.99
2022-08-19T20:29:01.307Z,23.99
2022-08-19T20:30:00.795Z,23.98
2022-08-19T20:31:14.208Z,23.99
2022-08-19T20:32:17.066Z,24.0
2022-08-19T20:33:29.199Z,24.0
2022-08-19T20:34:42.080Z,24.02
2022-08-19T20:35:44.326Z,24.03
2022-08-19T20:36:57.056Z,24.0
2022-08-19T20:38:09.245Z,24.0
2022-08-19T20:39:22.060Z,23.99
2022-08-19T20:40:24.324Z,24.0
2022-08-19T20:41:37.078Z,23.99
2022-08-19T20:42:49.082Z,23.98
2022-08-19T20:44:02.059Z,23.99
2022-08-19T20:45:04.323Z,23.98
2022-08-19T20:46:17.066Z,23.99
2022-08-19T20:47:29.279Z,23.99
2022-08-19T20:48:42.083Z,23.99
2022-08-19T20:49:44.415Z,23.99
2022-08-19T20:50:57.556Z,23.98
2022-08-19T20:52:09.744Z,23.99
2022-08-19T20:53:12.589Z,23.98
2022-08-19T20:54:24.784Z,23.98
2022-08-19T20:55:37.588Z,23.99
2022-08-19T20:56:49.784Z,23.98
2022-08-19T20:57:53.059Z,23.99
2022-08-19T20:59:05.258Z,23.96
2022-08-19T21:00:18.057Z,23.98
2022-08-19T21:01:30.389Z,24.0
2022-08-19T21:02:33.550Z,23.99
2022-08-19T21:03:45.833Z,23.99
2022-08-19T21:04:59.062Z,23.99
2022-08-19T21:06:02.871Z,23.96
2022-08-19T21:07:15.838Z,23.99
2022-08-19T21:08:28.029Z,23.99
2022-08-19T21:09:31.056Z,23.98
2022-08-19T21:10:43.234Z,23.96
2022-08-19T21:11:56.105Z,23.98
2022-08-19T21:13:09.504Z,23.98
2022-08-19T21:14:12.605Z,23.96
2022-08-19T21:15:25.313Z,23.96
2022-08-19T21:16:38.109Z,23.98
2022-08-19T21:17:40.443Z,23.96
2022-08-19T21:19:03.592Z,23.95
2022-08-19T21:20:05.890Z,23.95
2022-08-19T21:21:09.067Z,23.96
2022-08-19T21:22:21.264Z,23.96
2022-08-19T21:23:34.104Z,23.96
2022-08-19T21:24:46.319Z,23.93
2022-08-19T21:25:54.309Z,23.95
2022-08-19T21:27:06.901Z,23.95
2022-08-19T21:28:10.066Z,23.95
2022-08-19T21:29:22.267Z,23.93
2022-08-19T21:30:35.084Z,23.96
2022-08-19T21:31:37.352Z,23.93
2022-08-19T21:32:52.492Z,23.92
2022-08-19T21:34:05.031Z,23.92
2022-08-19T21:35:08.070Z,23.93
2022-08-19T21:36:20.256Z,23.92
2022-08-19T21:37:33.136Z,23.92
2022-08-19T21:38:35.534Z,23.92
2022-08-19T21:39:49.690Z,23.88
2022-08-19T21:41:04.194Z,23.89
2022-08-19T21:42:09.608Z,23.92
2022-08-19T21:43:21.753Z,23.9
2022-08-19T21:44:34.610Z,23.9
2022-08-19T21:45:40.012Z,23.9
2022-08-19T21:46:53.107Z,23.89
2022-08-19T21:47:55.541Z,23.89
2022-08-19T21:49:10.066Z,23.86
2022-08-19T21:50:25.802Z,23.89
2022-08-19T21:51:31.063Z,23.9
2022-08-19T21:52:43.263Z,23.89
2022-08-19T21:53:46.592Z,23.88
2022-08-19T21:55:00.854Z,23.9
2022-08-19T21:56:04.082Z,23.89
2022-08-19T21:57:16.278Z,23.88
2022-08-19T21:58:30.557Z,23.89
2022-08-19T21:59:33.212Z,23.89
2022-08-19T22:00:46.207Z,23.9
2022-08-19T22:02:15.941Z,23.93
2022-08-19T22:03:06.041Z,23.88
2022-08-19T22:04:18.354Z,23.89
2022-08-19T22:05:31.107Z,23.9
2022-08-19T22:06:33.433Z,23.9
2022-08-19T22:07:46.566Z,23.92
2022-08-19T22:08:58.694Z,23.9
2022-08-19T22:10:01.621Z,23.92
2022-08-19T22:11:13.830Z,23.89
2022-08-19T22:12:26.596Z,23.89
2022-08-19T22:13:39.780Z,23.9
2022-08-19T22:14:46.548Z,23.89
2022-08-19T22:15:58.846Z,23.9
2022-08-19T22:17:02.109Z,23.89
2022-08-19T22:18:14.246Z,23.89
2022-08-19T22:19:27.091Z,23.88
2022-08-19T22:20:29.414Z,23.88
2022-08-19T22:21:42.107Z,23.88
2022-08-19T22:22:54.309Z,23.86
2022-08-19T22:24:07.122Z,23.86
2022-08-19T22:25:09.481Z,23.83
2022-08-19T22:26:22.583Z,23.85
2022-08-19T22:27:34.802Z,23.82
2022-08-19T22:28:47.587Z,23.85
2022-08-19T22:29:52.545Z,23.83
2022-08-19T22:31:08.076Z,23.81
2022-08-19T22:32:26.631Z,23.83
2022-08-19T22:33:22.093Z,23.82
2022-08-19T22:34:34.318Z,23.81
2022-08-19T22:35:47.090Z,23.81
2022-08-19T22:36:49.401Z,23.82
2022-08-19T22:38:02.599Z,23.79
2022-08-19T22:39:14.792Z,23.81
2022-08-19T22:40:18.120Z,23.81
2022-08-19T22:41:30.957Z,23.79
2022-08-19T22:42:45.613Z,23.79
2022-08-19T22:43:47.969Z,23.78
2022-08-19T22:45:01.087Z,23.79
2022-08-19T22:46:16.959Z,23.75
2022-08-19T22:47:22.106Z,23.78
2022-08-19T22:48:29.546Z,23.76
2022-08-19T22:49:42.610Z,23.78
2022-08-19T22:50:44.903Z,23.75
2022-08-19T22:51:58.101Z,23.75
2022-08-19T22:53:10.291Z,23.75
2022-08-19T22:54:23.180Z,23.76
2022-08-19T22:55:25.440Z,23.76
2022-08-19T22:56:38.611Z,23.75
2022-08-19T22:57:50.851Z,23.75
2022-08-19T22:59:04.123Z,23.76
2022-08-19T23:00:06.429Z,23.75
2022-08-19T23:01:27.428Z,23.74
2022-08-19T23:02:32.893Z,23.74
2022-08-19T23:03:36.146Z,23.74
2022-08-19T23:04:48.334Z,23.78
2022-08-19T23:06:01.125Z,23.75
2022-08-19T23:07:03.578Z,23.76
2022-08-19T23:08:16.621Z,23.75
2022-08-19T23:09:30.581Z,23.74
2022-08-19T23:10:33.628Z,23.75
2022-08-19T23:11:45.821Z,23.74
2022-08-19T23:12:58.626Z,23.75
2022-08-19T23:14:10.802Z,23.72
2022-08-19T23:15:13.605Z,23.74
2022-08-19T23:16:25.717Z,23.74
2022-08-19T23:17:39.607Z,23.74
2022-08-19T23:18:41.894Z,23.75
2022-08-19T23:19:55.085Z,23.74
2022-08-19T23:21:07.260Z,23.75
2022-08-19T23:22:20.105Z,23.74
2022-08-19T23:23:27.590Z,23.74
2022-08-19T23:24:40.623Z,23.72
2022-08-19T23:25:42.876Z,23.74
2022-08-19T23:26:55.591Z,23.74
2022-08-19T23:28:07.787Z,23.74
2022-08-19T23:29:11.117Z,23.74
2022-08-19T23:30:23.313Z,23.71
2022-08-19T23:31:36.104Z,23.72
2022-08-19T23:32:48.312Z,23.71
2022-08-19T23:33:52.082Z,23.72
2022-08-19T23:35:05.621Z,23.71
2022-08-19T23:36:18.600Z,23.72
2022-08-19T23:37:20.850Z,23.72
2022-08-19T23:38:34.619Z,23.74
2022-08-19T23:39:46.855Z,23.72
2022-08-19T23:40:50.113Z,23.72
2022-08-19T23:42:02.225Z,23.74
2022-08-19T23:43:20.424Z,23.74
2022-08-19T23:44:27.004Z,23.75
2022-08-19T23:45:30.149Z,23.74
2022-08-19T23:46:54.957Z,23.74
2022-08-19T23:47:48.624Z,23.74
2022-08-19T23:49:00.959Z,23.72
2022-08-19T23:50:14.139Z,23.76
2022-08-19T23:51:26.265Z,23.74
2022-08-19T23:52:29.187Z,23.72
2022-08-19T23:53:41.301Z,23.75
2022-08-19T23:54:54.099Z,23.74
2022-08-19T23:56:06.284Z,23.74
2022-08-19T23:57:14.126Z,23.75
2022-08-19T23:58:16.774Z,23.74
2022-08-19T23:59:29.680Z,23.75
